Time;durP1;ratioP1;P1;durP2;ratioP2;P2;SDS_P1;SDS_P2;PMS_P1;PMS_P2;Temp;Humidity;BMP_temperature;BMP_pressure;BME280_temperature;BME280_humidity;BME280_pressure;Samples;Min_cycle;Max_cycle;Signal;HPM_P1;HPM_P2
2022/06/10 00:00:07;;;;;;;3.70;2.53;;;;;;;19.88;51.23;100035.56;4194131;28;20389;-72
2022/06/10 00:02:08;;;;;;;4.90;2.80;;;;;;;21.37;48.49;100013.56;4200711;28;20646;-72
2022/06/10 00:04:10;;;;;;;5.13;3.07;;;;;;;20.50;49.55;100043.16;4197108;28;20222;-71
2022/06/10 00:06:13;;;;;;;7.97;3.20;;;;;;;21.04;48.92;100030.09;4187139;28;20219;-72
2022/06/10 00:08:18;;;;;;;5.80;3.10;;;;;;;21.45;47.89;100024.09;4191311;28;20223;-72
2022/06/10 00:10:23;;;;;;;5.93;2.90;;;;;;;20.85;49.10;100038.13;4193633;28;20281;-71
2022/06/10 00:12:25;;;;;;;5.07;3.00;;;;;;;20.95;48.70;100056.59;4175312;28;20235;-72
2022/06/10 00:14:27;;;;;;;6.40;2.90;;;;;;;21.81;46.82;100043.28;4203072;28;20219;-71
2022/06/10 00:16:28;;;;;;;4.80;3.20;;;;;;;21.17;48.06;100059.72;4193030;28;20711;-72
2022/06/10 00:18:31;;;;;;;7.97;3.17;;;;;;;21.15;47.85;100072.63;4205110;28;20726;-71
2022/06/10 00:20:34;;;;;;;10.53;3.47;;;;;;;21.49;47.25;100048.81;4205115;28;20227;-72
2022/06/10 00:22:35;;;;;;;4.87;2.60;;;;;;;21.75;46.81;100046.88;4194062;28;20291;-72
2022/06/10 00:24:37;;;;;;;4.30;2.90;;;;;;;21.88;46.32;100053.00;4202230;28;20283;-72
2022/06/10 00:26:39;;;;;;;6.93;3.20;;;;;;;21.90;46.23;100072.53;4196168;28;20232;-72
2022/06/10 00:28:43;;;;;;;8.13;3.27;;;;;;;21.45;47.19;100071.97;4202034;28;20230;-72
2022/06/10 00:30:46;;;;;;;8.27;3.53;;;;;;;21.54;46.78;100071.44;4198287;28;20809;-72
2022/06/10 00:32:47;;;;;;;7.53;3.10;;;;;;;21.18;47.36;100081.13;4200919;28;20746;-72
2022/06/10 00:34:49;;;;;;;6.70;3.17;;;;;;;20.68;48.49;100074.84;4203664;28;20585;-72
2022/06/10 00:36:51;;;;;;;4.20;2.97;;;;;;;20.70;48.35;100073.59;4199448;28;20292;-72
2022/06/10 00:38:53;;;;;;;8.00;3.23;;;;;;;21.30;47.42;100061.50;4201965;28;20619;-72
2022/06/10 00:40:56;;;;;;;6.07;2.83;;;;;;;21.22;47.62;100062.59;4196786;28;20262;-72
2022/06/10 00:42:58;;;;;;;5.97;2.90;;;;;;;21.24;47.28;100078.59;4200517;28;20281;-72
2022/06/10 00:44:59;;;;;;;6.30;3.00;;;;;;;21.65;46.66;100059.06;4197814;28;20234;-72
2022/06/10 00:47:25;;;;;;;5.37;3.23;;;;;;;21.86;46.36;100070.50;4200186;28;20239;-72
2022/06/10 00:49:28;;;;;;;6.10;2.80;;;;;;;20.70;48.37;100089.81;4187386;28;20288;-72
2022/06/10 00:51:42;;;;;;;6.23;2.90;;;;;;;21.19;47.51;100071.13;4204265;28;20234;-72
2022/06/10 00:53:45;;;;;;;6.47;2.63;;;;;;;20.93;48.29;100082.97;4193943;28;20239;-71
2022/06/10 00:55:49;;;;;;;5.43;3.27;;;;;;;20.74;48.31;100091.00;4191762;28;20242;-72
2022/06/10 00:57:51;;;;;;;9.70;3.10;;;;;;;20.50;48.77;100086.38;4203355;28;20225;-71
2022/06/10 01:00:04;;;;;;;5.33;2.83;;;;;;;21.11;48.07;100049.81;4193639;28;20227;-71
2022/06/10 01:02:14;;;;;;;5.83;2.80;;;;;;;21.43;47.28;100049.72;4193580;28;20235;-72
2022/06/10 01:04:16;;;;;;;9.20;3.27;;;;;;;21.08;47.63;100066.47;4202538;28;20265;-72
2022/06/10 01:06:18;;;;;;;4.77;2.47;;;;;;;21.25;47.43;100048.63;4200734;28;20228;-72
2022/06/10 01:08:21;;;;;;;7.37;3.10;;;;;;;21.08;47.54;100072.69;4196918;28;21046;-71
2022/06/10 01:10:24;;;;;;;6.87;2.43;;;;;;;21.14;47.91;100055.59;4204511;28;20226;-71
2022/06/10 01:12:51;;;;;;;6.30;3.47;;;;;;;21.12;47.43;100070.38;4197864;28;20251;-71
2022/06/10 01:14:56;;;;;;;6.07;2.73;;;;;;;21.47;47.18;100053.63;4196161;28;20750;-71
2022/06/10 01:17:00;;;;;;;8.97;3.60;;;;;;;21.21;47.49;100074.47;4178114;28;20322;-71
2022/06/10 01:19:49;;;;;;;6.60;2.53;;;;;;;21.32;47.32;100048.56;4198877;28;20239;-71
2022/06/10 01:22:14;;;;;;;7.97;3.50;;;;;;;21.48;46.98;100048.00;4194198;28;20235;-71
2022/06/10 01:24:37;;;;;;;7.83;3.17;;;;;;;21.11;47.47;100074.97;4197903;28;20757;-72
2022/06/10 01:30:17;;;;;;;5.47;2.50;;;;;;;20.72;48.41;100095.81;4201332;28;20227;-71
2022/06/10 01:32:54;;;;;;;6.40;2.80;;;;;;;20.91;47.93;100076.97;4196715;28;20738;-71
2022/06/10 01:35:10;;;;;;;6.40;2.63;;;;;;;19.98;49.69;100094.50;4167108;28;20223;-72
2022/06/10 01:37:20;;;;;;;6.40;3.00;;;;;;;20.81;48.55;100051.25;4198738;28;20231;-72
2022/06/10 01:39:56;;;;;;;5.90;3.13;;;;;;;21.01;47.97;100047.59;4199011;28;20914;-71
2022/06/10 01:42:11;;;;;;;4.93;2.70;;;;;;;20.64;48.45;100089.84;4197071;28;20226;-71
2022/06/10 01:44:20;;;;;;;5.70;3.00;;;;;;;21.02;47.98;100076.28;4201032;28;20831;-72
2022/06/10 01:46:35;;;;;;;6.60;2.90;;;;;;;20.28;49.54;100081.31;4199037;28;20753;-71
2022/06/10 01:48:42;;;;;;;5.43;2.87;;;;;;;20.75;48.63;100062.09;4203256;28;20214;-71
2022/06/10 01:51:12;;;;;;;5.73;2.80;;;;;;;20.74;48.22;100071.28;4202476;28;20227;-71
2022/06/10 01:53:27;;;;;;;6.07;2.80;;;;;;;21.26;47.37;100044.88;4176356;28;20228;-71
2022/06/10 01:55:56;;;;;;;6.43;3.00;;;;;;;21.00;47.71;100081.06;4201356;28;20257;-71
2022/06/10 01:58:10;;;;;;;6.80;2.70;;;;;;;20.91;48.33;100071.56;4192581;28;20238;-71
2022/06/10 02:00:18;;;;;;;6.50;2.53;;;;;;;20.73;48.20;100088.53;4201022;28;20317;-72
2022/06/10 02:02:25;;;;;;;8.27;3.23;;;;;;;21.01;47.34;100071.13;4186315;28;20238;-72
2022/06/10 02:04:35;;;;;;;5.93;2.90;;;;;;;20.37;48.84;100082.72;4197517;28;20246;-71
2022/06/10 02:06:48;;;;;;;5.13;2.87;;;;;;;20.79;48.16;100074.16;4197846;28;20230;-72
2022/06/10 02:08:57;;;;;;;4.30;2.63;;;;;;;20.67;48.15;100095.63;4187999;28;20284;-71
2022/06/10 02:11:12;;;;;;;6.27;2.80;;;;;;;20.70;48.19;100089.81;4198358;28;20234;-71
2022/06/10 02:13:21;;;;;;;6.30;2.93;;;;;;;20.45;48.38;100105.94;4202286;28;20267;-71
2022/06/10 02:15:29;;;;;;;6.73;3.17;;;;;;;20.93;47.94;100059.47;4202152;28;20268;-72
2022/06/10 02:17:42;;;;;;;6.47;2.77;;;;;;;20.79;47.78;100093.88;4203610;28;20610;-72
2022/06/10 02:19:50;;;;;;;6.83;2.63;;;;;;;20.93;47.59;100081.09;4203056;28;20784;-72
2022/06/10 02:22:09;;;;;;;3.47;2.57;;;;;;;20.51;48.68;100086.16;4185821;28;20299;-71
2022/06/10 02:24:11;;;;;;;7.27;3.23;;;;;;;19.41;50.47;100119.25;4199073;28;20667;-71
2022/06/10 02:26:14;;;;;;;6.70;3.30;;;;;;;19.14;50.81;100129.22;4198358;28;20264;-71
2022/06/10 02:28:22;;;;;;;7.10;3.10;;;;;;;18.11;53.05;100111.28;4199247;28;20227;-71
2022/06/10 02:30:36;;;;;;;4.80;2.80;;;;;;;19.23;51.40;100065.94;4198274;28;20617;-71
2022/06/10 02:32:39;;;;;;;6.53;3.17;;;;;;;19.71;49.78;100091.84;4198623;28;20283;-71
2022/06/10 02:34:41;;;;;;;5.67;3.10;;;;;;;19.90;49.45;100100.13;4199384;28;20226;-71
2022/06/10 02:36:46;;;;;;;9.23;3.03;;;;;;;20.30;48.96;100081.06;4204696;28;20971;-71
2022/06/10 02:39:08;;;;;;;8.73;3.23;;;;;;;19.67;49.82;100109.50;4200207;28;21044;-72
2022/06/10 02:41:34;;;;;;;6.07;3.33;;;;;;;20.23;48.94;100100.00;4196624;28;20250;-71
2022/06/10 02:43:44;;;;;;;7.90;3.70;;;;;;;19.97;49.16;100119.81;4193849;28;20231;-71
2022/06/10 02:45:49;;;;;;;4.83;3.00;;;;;;;20.33;48.56;100086.91;4192543;28;20311;-71
2022/06/10 02:48:10;;;;;;;6.33;2.80;;;;;;;20.54;47.87;100101.94;4201047;28;20230;-71
2022/06/10 02:50:14;;;;;;;11.80;3.13;;;;;;;20.21;48.54;100129.91;4201963;28;20371;-72
2022/06/10 02:52:18;;;;;;;4.93;2.70;;;;;;;19.97;49.18;100136.00;4196381;28;20734;-71
2022/06/10 02:54:28;;;;;;;5.57;3.27;;;;;;;20.48;47.93;100110.06;4195240;28;20227;-71
2022/06/10 02:56:30;;;;;;;6.93;2.93;;;;;;;20.20;48.24;100127.41;4173933;28;20227;-71
2022/06/10 03:01:20;;;;;;;7.73;3.13;;;;;;;20.10;48.60;100143.25;4196347;28;20285;-71
2022/06/10 03:03:51;;;;;;;6.23;3.13;;;;;;;20.11;48.81;100129.53;4197252;28;20242;-71
2022/06/10 03:05:59;;;;;;;6.20;2.90;;;;;;;20.15;48.51;100141.56;4197771;28;20579;-70
2022/06/10 03:08:26;;;;;;;3.90;2.90;;;;;;;19.97;48.84;100144.09;4193998;28;20695;-70
2022/06/10 03:10:40;;;;;;;7.30;3.50;;;;;;;20.37;48.09;100119.69;4196744;28;20219;-70
2022/06/10 03:13:00;;;;;;;5.13;3.17;;;;;;;20.24;48.10;100142.97;4192756;28;20289;-69
2022/06/10 03:15:09;;;;;;;4.43;2.80;;;;;;;18.71;51.55;100181.53;4200363;28;20320;-70
2022/06/10 03:17:23;;;;;;;4.50;3.03;;;;;;;19.44;50.03;100153.06;4197021;28;20292;-70
2022/06/10 03:19:30;;;;;;;7.10;3.57;;;;;;;20.00;49.02;100124.78;4191695;28;20738;-70
2022/06/10 03:21:41;;;;;;;4.80;3.33;;;;;;;19.77;49.28;100141.44;4197086;28;20234;-70
2022/06/10 03:23:58;;;;;;;8.20;3.77;;;;;;;19.84;49.07;100132.31;4199610;28;20238;-70
2022/06/10 03:26:32;;;;;;;4.63;3.13;;;;;;;19.64;49.39;100136.88;4184144;28;20231;-70
2022/06/10 03:29:00;;;;;;;8.97;3.07;;;;;;;19.92;48.84;100136.63;4188657;28;20934;-70
2022/06/10 03:31:26;;;;;;;6.93;3.00;;;;;;;20.02;48.88;100128.91;4189678;28;21006;-70
2022/06/10 03:33:34;;;;;;;6.27;3.17;;;;;;;19.83;48.82;100149.53;4199122;28;20317;-70
2022/06/10 03:35:44;;;;;;;5.63;3.47;;;;;;;19.88;49.03;100138.91;4202678;28;20241;-70
2022/06/10 03:37:47;;;;;;;6.80;3.23;;;;;;;19.96;49.11;100143.28;4194223;28;20234;-69
2022/06/10 03:39:53;;;;;;;8.37;3.70;;;;;;;19.80;49.39;100138.31;4195728;28;20618;-70
2022/06/10 03:41:55;;;;;;;7.53;3.50;;;;;;;19.84;49.04;100150.34;4201029;28;20614;-70
2022/06/10 03:43:58;;;;;;;3.73;3.03;;;;;;;19.78;49.70;100149.31;4197100;28;20228;-70
2022/06/10 03:46:04;;;;;;;10.03;4.00;;;;;;;19.97;48.63;100169.22;4201651;28;20378;-69
2022/06/10 03:48:07;;;;;;;7.07;3.30;;;;;;;20.02;48.42;100173.97;4205833;28;20250;-70
2022/06/10 03:50:13;;;;;;;6.80;3.53;;;;;;;19.49;49.82;100164.88;4204090;28;20314;-71
2022/06/10 03:52:22;;;;;;;5.23;2.73;;;;;;;19.58;49.69;100172.81;4202703;28;20241;-71
2022/06/10 03:54:23;;;;;;;9.87;3.67;;;;;;;20.04;48.83;100142.19;4197958;28;21020;-72
2022/06/10 03:56:25;;;;;;;7.07;3.20;;;;;;;19.12;49.93;100206.75;4202655;28;20715;-71
2022/06/10 03:58:27;;;;;;;7.13;3.60;;;;;;;19.41;49.88;100170.47;4199336;28;20687;-72
2022/06/10 04:00:28;;;;;;;7.17;3.33;;;;;;;20.22;48.22;100147.75;4204336;28;20227;-72
2022/06/10 04:02:30;;;;;;;7.27;3.77;;;;;;;19.72;49.12;100190.63;4193988;28;20231;-72
2022/06/10 04:04:31;;;;;;;6.93;3.67;;;;;;;19.77;48.87;100177.34;4192854;28;20235;-72
2022/06/10 04:06:33;;;;;;;4.63;2.83;;;;;;;20.28;48.11;100169.56;4197367;28;20298;-72
2022/06/10 04:08:55;;;;;;;9.07;3.10;;;;;;;20.09;48.19;100182.88;4177460;28;20723;-71
2022/06/10 04:10:57;;;;;;;7.37;3.20;;;;;;;19.98;48.80;100184.38;4195754;28;20243;-72
2022/06/10 04:12:58;;;;;;;6.70;3.37;;;;;;;19.82;48.71;100203.69;4187049;28;20232;-71
2022/06/10 04:15:00;;;;;;;8.67;3.30;;;;;;;19.92;48.51;100203.28;4193304;28;20255;-71
2022/06/10 04:17:03;;;;;;;6.73;3.30;;;;;;;19.83;48.92;100202.66;4200808;28;20643;-72
2022/06/10 04:19:04;;;;;;;5.87;3.10;;;;;;;19.56;49.16;100216.16;4195401;28;20337;-71
2022/06/10 04:21:06;;;;;;;5.53;3.13;;;;;;;19.87;48.54;100202.00;4208005;28;20234;-71
2022/06/10 04:23:09;;;;;;;11.00;4.00;;;;;;;19.66;48.92;100208.47;4204982;28;20917;-72
2022/06/10 04:25:11;;;;;;;6.97;3.03;;;;;;;19.60;49.14;100225.47;4207283;28;20295;-71
2022/06/10 04:27:13;;;;;;;7.10;3.23;;;;;;;19.67;49.11;100209.31;4213092;28;20295;-71
2022/06/10 04:29:15;;;;;;;6.83;3.23;;;;;;;19.63;49.03;100214.28;4209816;28;20596;-72
2022/06/10 04:31:18;;;;;;;8.27;3.37;;;;;;;19.62;49.39;100212.66;4211232;28;20778;-72
2022/06/10 04:33:20;;;;;;;7.40;3.40;;;;;;;19.24;50.24;100228.53;4219711;28;20233;-72
2022/06/10 04:35:24;;;;;;;7.83;3.50;;;;;;;19.49;49.32;100199.94;4211743;28;20276;-72
2022/06/10 04:37:26;;;;;;;6.20;3.50;;;;;;;19.14;50.23;100210.88;4214579;28;20365;-72
2022/06/10 04:39:27;;;;;;;6.77;3.40;;;;;;;19.08;50.74;100205.47;4207976;28;20256;-72
2022/06/10 04:41:29;;;;;;;5.70;3.37;;;;;;;19.02;50.92;100215.22;4216092;28;20294;-71
2022/06/10 04:43:31;;;;;;;6.17;3.20;;;;;;;18.62;51.90;100193.50;4214375;28;20304;-71
2022/06/10 04:45:38;;;;;;;7.27;3.67;;;;;;;18.86;51.19;100181.38;4211130;28;20238;-72
2022/06/10 04:47:40;;;;;;;7.43;3.30;;;;;;;19.21;50.68;100202.81;4213151;28;20230;-72
2022/06/10 04:49:42;;;;;;;7.13;3.83;;;;;;;19.36;50.08;100191.84;4210953;28;20653;-71
2022/06/10 04:51:43;;;;;;;8.20;3.73;;;;;;;19.49;50.24;100186.47;4200667;28;20238;-72
2022/06/10 04:53:45;;;;;;;7.43;3.67;;;;;;;19.18;50.99;100222.09;4198836;28;20293;-72
2022/06/10 04:55:47;;;;;;;8.07;4.63;;;;;;;19.83;49.84;100165.72;4202489;28;20287;-72
2022/06/10 04:57:49;;;;;;;7.50;3.93;;;;;;;20.05;49.32;100189.75;4207468;28;20291;-72
2022/06/10 04:59:51;;;;;;;6.57;3.93;;;;;;;19.76;49.82;100218.84;4208882;28;20299;-72
2022/06/10 05:01:52;;;;;;;8.80;4.13;;;;;;;19.84;49.88;100209.69;4210913;28;20233;-72
2022/06/10 05:03:54;;;;;;;8.67;4.17;;;;;;;19.93;49.81;100213.84;4215274;28;20234;-72
2022/06/10 05:05:56;;;;;;;8.43;4.00;;;;;;;18.92;51.76;100242.56;4218181;28;20231;-71
2022/06/10 05:07:58;;;;;;;11.77;4.07;;;;;;;19.45;50.94;100222.13;4208977;28;20238;-72
2022/06/10 05:10:00;;;;;;;10.43;4.70;;;;;;;19.70;50.39;100211.59;4217001;28;20657;-72
2022/06/10 05:12:02;;;;;;;9.07;5.37;;;;;;;19.52;51.02;100215.72;4220121;28;20288;-72
2022/06/10 05:14:04;;;;;;;8.50;4.10;;;;;;;19.96;50.36;100216.16;4217608;28;20231;-71
2022/06/10 05:16:06;;;;;;;7.93;4.40;;;;;;;19.58;51.20;100243.75;4216464;28;20287;-72
2022/06/10 05:18:08;;;;;;;6.50;3.97;;;;;;;19.90;50.70;100230.47;4201980;28;20238;-72
2022/06/10 05:20:16;;;;;;;10.53;4.07;;;;;;;19.28;51.86;100254.03;4204679;28;20238;-71
2022/06/10 05:22:17;;;;;;;8.03;4.27;;;;;;;20.19;50.01;100229.16;4218046;28;20234;-72
2022/06/10 05:24:19;;;;;;;6.87;4.47;;;;;;;19.50;51.20;100273.59;4213670;28;20226;-69
2022/06/10 05:26:21;;;;;;;6.60;4.30;;;;;;;20.23;50.74;100219.63;4200964;28;20726;-70
2022/06/10 05:28:23;;;;;;;8.67;4.40;;;;;;;19.88;51.48;100233.38;4196247;28;20230;-70
2022/06/10 05:30:28;;;;;;;7.73;4.30;;;;;;;20.18;50.92;100205.06;4214597;28;20302;-70
2022/06/10 05:32:30;;;;;;;9.73;4.50;;;;;;;20.29;51.08;100231.47;4201778;28;20264;-69
2022/06/10 05:34:47;;;;;;;7.50;4.47;;;;;;;20.01;51.34;100237.94;4214282;28;20226;-70
2022/06/10 05:36:49;;;;;;;7.20;4.73;;;;;;;19.76;52.21;100271.97;4181643;28;20235;-70
2022/06/10 05:38:50;;;;;;;7.87;4.13;;;;;;;19.59;52.57;100242.72;4211198;28;20231;-70
2022/06/10 05:40:52;;;;;;;8.43;4.13;;;;;;;19.69;52.62;100234.22;4211196;28;20234;-69
2022/06/10 05:42:54;;;;;;;7.23;5.03;;;;;;;19.41;53.04;100240.59;4206070;28;20234;-70
2022/06/10 05:44:56;;;;;;;10.67;5.07;;;;;;;20.16;50.89;100236.84;4207962;28;20937;-70
2022/06/10 05:46:57;;;;;;;7.97;5.00;;;;;;;19.49;52.55;100269.25;4208090;28;20271;-70
2022/06/10 05:48:59;;;;;;;8.40;4.20;;;;;;;19.59;51.96;100258.06;4208245;28;20221;-70
2022/06/10 05:51:01;;;;;;;8.00;5.07;;;;;;;20.37;51.12;100238.53;4206636;28;20657;-70
2022/06/10 05:53:06;;;;;;;8.53;4.97;;;;;;;20.32;50.96;100224.81;4206046;28;20264;-70
2022/06/10 05:55:11;;;;;;;8.63;4.93;;;;;;;19.78;51.60;100259.94;4206657;28;20806;-70
2022/06/10 05:57:13;;;;;;;7.53;4.23;;;;;;;19.06;53.50;100283.84;4195417;28;20231;-70
2022/06/10 05:59:15;;;;;;;8.97;4.83;;;;;;;20.20;51.41;100230.84;4211144;28;20320;-70
2022/06/10 06:01:17;;;;;;;8.17;5.17;;;;;;;19.91;51.32;100286.13;4206873;28;20316;-70
2022/06/10 06:03:24;;;;;;;10.40;4.50;;;;;;;19.31;52.95;100296.78;4203118;28;20354;-73
2022/06/10 06:05:28;;;;;;;11.20;4.87;;;;;;;20.29;51.60;100236.88;4198526;28;20282;-73
2022/06/10 06:07:29;;;;;;;8.13;4.60;;;;;;;20.87;50.46;100237.91;4208992;28;20230;-70
2022/06/10 06:09:31;;;;;;;7.23;4.07;;;;;;;20.85;50.07;100277.84;4207660;28;20284;-69
2022/06/10 06:11:33;;;;;;;8.20;5.20;;;;;;;20.48;51.15;100291.03;4189976;28;20751;-69
2022/06/10 06:13:34;;;;;;;9.07;4.27;;;;;;;20.46;50.71;100288.56;4208306;28;20268;-70
2022/06/10 06:15:39;;;;;;;8.13;4.00;;;;;;;20.25;51.29;100258.03;4207207;28;20803;-70
2022/06/10 06:17:41;;;;;;;6.83;4.17;;;;;;;20.68;50.29;100258.56;4208813;28;20246;-70
2022/06/10 06:19:43;;;;;;;10.67;4.37;;;;;;;20.96;49.66;100253.69;4208154;28;20237;-69
2022/06/10 06:21:45;;;;;;;8.80;4.13;;;;;;;20.86;50.01;100277.63;4219498;28;20240;-71
2022/06/10 06:23:46;;;;;;;7.13;3.63;;;;;;;19.93;51.74;100327.22;4213419;28;20713;-70
2022/06/10 06:25:48;;;;;;;6.27;3.53;;;;;;;20.45;51.18;100265.31;4208474;28;20315;-70
2022/06/10 06:27:50;;;;;;;9.77;4.17;;;;;;;20.34;50.96;100285.66;4213737;28;20287;-70
2022/06/10 06:29:52;;;;;;;8.03;4.10;;;;;;;20.99;50.22;100253.25;4205446;28;20719;-70
2022/06/10 06:31:53;;;;;;;7.60;3.70;;;;;;;20.96;50.12;100269.91;4210001;28;20602;-70
2022/06/10 06:33:55;;;;;;;8.10;3.63;;;;;;;20.43;51.58;100276.31;4203931;28;20276;-70
2022/06/10 06:35:57;;;;;;;5.93;3.50;;;;;;;19.82;52.43;100261.19;4207343;28;20226;-70
2022/06/10 06:37:59;;;;;;;10.40;3.60;;;;;;;19.10;53.10;100312.06;4210132;28;20226;-70
2022/06/10 06:40:01;;;;;;;8.50;3.43;;;;;;;20.12;52.15;100257.22;4193224;28;20227;-70
2022/06/10 06:42:03;;;;;;;7.77;3.93;;;;;;;20.57;50.99;100241.97;4208997;28;20230;-71
2022/06/10 06:44:07;;;;;;;6.40;3.53;;;;;;;20.41;51.61;100237.03;4189623;28;20308;-70
2022/06/10 06:46:11;;;;;;;5.27;3.20;;;;;;;20.51;51.50;100280.63;4211065;28;20237;-70
2022/06/10 06:48:13;;;;;;;8.30;3.90;;;;;;;19.35;53.74;100326.88;4215643;28;20232;-71
2022/06/10 06:50:18;;;;;;;5.50;3.67;;;;;;;20.15;52.33;100291.91;4212246;28;20817;-69
2022/06/10 06:52:19;;;;;;;5.43;3.17;;;;;;;20.35;51.09;100281.13;4199226;28;20231;-68
2022/06/10 06:54:24;;;;;;;7.73;3.70;;;;;;;20.30;51.38;100294.38;4206329;28;20234;-68
2022/06/10 06:56:26;;;;;;;9.27;4.37;;;;;;;19.92;51.84;100325.53;4208092;28;20291;-68
2022/06/10 06:58:27;;;;;;;6.37;3.70;;;;;;;20.69;51.13;100262.94;4214372;28;20860;-68
2022/06/10 07:00:30;;;;;;;8.77;3.87;;;;;;;21.08;50.26;100243.03;4210772;28;20683;-67
2022/06/10 07:02:36;;;;;;;9.30;3.47;;;;;;;20.97;50.52;100306.72;4211722;28;20235;-68
2022/06/10 07:04:38;;;;;;;7.13;3.20;;;;;;;21.71;49.06;100280.09;4212207;28;20238;-67
2022/06/10 07:06:42;;;;;;;10.03;4.30;;;;;;;20.66;51.59;100326.31;4206942;28;20781;-67
2022/06/10 07:08:44;;;;;;;7.63;4.63;;;;;;;21.44;50.57;100281.28;4205519;28;20234;-67
2022/06/10 07:10:46;;;;;;;9.20;4.33;;;;;;;21.66;49.72;100268.25;4212767;28;20638;-68
2022/06/10 07:12:48;;;;;;;6.83;3.63;;;;;;;21.14;50.44;100312.47;4211675;28;20865;-68
2022/06/10 07:14:50;;;;;;;10.07;4.20;;;;;;;20.96;51.23;100294.25;4216806;28;20689;-68
2022/06/10 07:16:52;;;;;;;8.40;4.00;;;;;;;21.50;49.87;100310.19;4213950;28;20230;-69
2022/06/10 07:18:54;;;;;;;8.63;4.20;;;;;;;21.98;49.08;100282.56;4216913;28;20709;-67
2022/06/10 07:20:56;;;;;;;7.57;3.10;;;;;;;21.99;49.03;100326.72;4218932;28;20780;-67
2022/06/10 07:22:59;;;;;;;8.10;3.87;;;;;;;21.70;49.40;100310.09;4218422;28;20295;-68
2022/06/10 07:25:00;;;;;;;7.83;3.90;;;;;;;21.92;48.92;100326.78;4213834;28;20230;-67
2022/06/10 07:27:04;;;;;;;7.87;3.87;;;;;;;21.39;50.29;100335.22;4219462;28;20267;-67
2022/06/10 07:29:06;;;;;;;9.63;3.73;;;;;;;22.09;48.76;100294.56;4213538;28;20726;-67
2022/06/10 07:31:08;;;;;;;6.50;3.20;;;;;;;22.31;48.02;100303.13;4218862;28;20303;-67
2022/06/10 07:33:10;;;;;;;5.37;3.00;;;;;;;22.14;48.64;100327.22;4220315;28;20759;-67
2022/06/10 07:35:13;;;;;;;5.90;3.40;;;;;;;22.10;47.68;100329.56;4210747;28;20262;-67
2022/06/10 07:37:15;;;;;;;9.27;3.90;;;;;;;22.30;47.23;100323.16;4216995;28;20253;-67
2022/06/10 07:39:17;;;;;;;10.57;3.90;;;;;;;22.34;47.39;100337.91;4213211;28;20259;-67
2022/06/10 07:43:42;;;;;;;12.07;3.97;;;;;;;22.18;47.83;100323.00;4214643;28;20234;-68
2022/06/10 07:45:44;;;;;;;7.07;3.50;;;;;;;22.35;48.06;100322.47;4216852;28;20818;-67
2022/06/10 07:47:45;;;;;;;8.60;3.67;;;;;;;22.49;46.98;100320.47;4218685;28;21113;-67
2022/06/10 07:49:47;;;;;;;6.27;3.50;;;;;;;22.46;47.61;100325.28;4219010;28;20233;-67
2022/06/10 07:51:49;;;;;;;7.37;3.23;;;;;;;21.98;47.38;100358.38;4212359;28;20245;-67
2022/06/10 07:53:51;;;;;;;5.97;3.40;;;;;;;22.91;46.67;100305.19;4211354;28;20375;-67
2022/06/10 07:55:52;;;;;;;7.40;3.83;;;;;;;22.48;47.58;100318.81;4220835;28;21189;-67
2022/06/10 07:57:54;;;;;;;6.40;3.67;;;;;;;22.86;46.87;100301.50;4219287;28;20272;-67
2022/06/10 07:59:56;;;;;;;9.77;3.77;;;;;;;22.73;47.56;100311.44;4220784;28;20307;-67
2022/06/10 08:01:58;;;;;;;6.83;3.60;;;;;;;22.48;47.32;100327.78;4215959;28;20258;-67
2022/06/10 08:04:01;;;;;;;6.50;3.33;;;;;;;22.18;48.80;100330.31;4220099;28;20239;-68
2022/06/10 08:06:03;;;;;;;11.47;4.17;;;;;;;22.75;47.24;100303.91;4212045;28;20222;-67
2022/06/10 08:08:05;;;;;;;8.30;3.70;;;;;;;22.76;47.44;100291.19;4215308;28;20314;-67
2022/06/10 08:10:14;;;;;;;6.90;3.50;;;;;;;23.23;46.94;100304.19;4219599;28;20650;-67
2022/06/10 08:12:16;;;;;;;6.00;3.47;;;;;;;22.96;46.52;100323.50;4218682;28;20291;-67
2022/06/10 08:14:18;;;;;;;6.30;3.47;;;;;;;22.63;47.46;100330.13;4216313;28;20226;-67
2022/06/10 08:16:20;;;;;;;9.27;3.73;;;;;;;21.77;48.39;100351.47;4213801;28;20282;-67
2022/06/10 08:18:22;;;;;;;9.47;3.67;;;;;;;23.47;45.99;100310.50;4220686;28;20226;-67
2022/06/10 08:22:48;;;;;;;7.20;3.50;;;;;;;22.19;48.42;100330.09;4215169;28;20233;-67
2022/06/10 08:24:50;;;;;;;6.23;4.17;;;;;;;22.48;48.46;100316.13;4218254;28;20234;-67
2022/06/10 08:26:52;;;;;;;6.97;3.90;;;;;;;22.04;48.97;100321.50;4221044;28;20294;-67
2022/06/10 08:28:54;;;;;;;9.03;3.27;;;;;;;21.90;49.08;100324.31;4204569;28;20234;-67
2022/06/10 08:30:56;;;;;;;7.53;3.77;;;;;;;23.00;47.27;100282.16;4216580;28;20915;-67
2022/06/10 08:32:59;;;;;;;6.97;3.03;;;;;;;23.24;46.39;100292.28;4214274;28;20287;-67
2022/06/10 08:35:01;;;;;;;6.00;3.70;;;;;;;23.28;45.77;100329.59;4212329;28;20359;-67
2022/06/10 08:37:03;;;;;;;7.87;2.80;;;;;;;23.89;44.65;100305.94;4218106;28;20234;-67
2022/06/10 08:39:05;;;;;;;7.27;2.93;;;;;;;23.51;45.73;100306.28;4212908;28;20235;-67
2022/06/10 08:41:15;;;;;;;6.20;2.83;;;;;;;24.29;45.71;100294.41;4212713;28;20333;-67
2022/06/10 08:43:34;;;;;;;7.77;2.73;;;;;;;23.69;44.94;100327.97;4213991;28;20286;-67
2022/06/10 08:45:51;;;;;;;6.67;3.30;;;;;;;23.23;46.87;100301.47;4202788;28;20222;-67
2022/06/10 08:48:42;;;;;;;11.07;2.93;;;;;;;23.77;45.48;100315.94;4208690;28;20234;-67
2022/06/10 08:50:49;;;;;;;4.90;2.85;;;;;;;24.45;44.05;100298.28;4206938;28;20272;-67
2022/06/10 08:53:09;;;;;;;6.20;2.58;;;;;;;24.67;44.34;100295.75;4208234;28;20237;-67
2022/06/10 08:55:32;;;;;;;6.05;2.40;;;;;;;25.03;43.05;100303.84;4202322;28;20242;-67
2022/06/10 08:57:41;;;;;;;5.80;2.65;;;;;;;25.40;42.34;100315.19;4204791;28;20706;-67
2022/06/10 08:59:46;;;;;;;6.22;2.10;;;;;;;24.13;44.30;100349.41;4211252;28;20229;-67
2022/06/10 09:02:02;;;;;;;4.78;2.28;;;;;;;25.20;41.78;100315.59;4214502;28;20291;-67
2022/06/10 09:04:40;;;;;;;4.28;2.28;;;;;;;25.05;42.20;100312.59;4216520;28;20227;-67
2022/06/10 09:06:48;;;;;;;4.60;2.47;;;;;;;24.59;42.95;100336.91;4208531;28;20294;-67
2022/06/10 09:08:56;;;;;;;5.30;2.20;;;;;;;24.60;43.40;100314.09;4210011;28;20240;-67
2022/06/10 09:11:05;;;;;;;7.60;2.80;;;;;;;24.55;44.27;100311.28;4201588;28;20234;-73
2022/06/10 09:13:28;;;;;;;7.82;2.35;;;;;;;24.69;43.59;100309.94;4214690;28;20287;-68
2022/06/10 09:15:33;;;;;;;4.95;2.40;;;;;;;24.84;42.60;100317.63;4200544;28;20292;-68
2022/06/10 09:17:45;;;;;;;5.85;2.53;;;;;;;24.24;43.25;100326.88;4214549;28;20706;-67
2022/06/10 09:20:05;;;;;;;7.82;2.70;;;;;;;24.55;43.60;100303.13;4210970;28;20237;-67
2022/06/10 09:22:10;;;;;;;5.18;2.67;;;;;;;24.55;43.74;100324.03;4213395;28;20234;-67
2022/06/10 09:24:28;;;;;;;5.45;2.78;;;;;;;25.44;42.87;100287.47;4206969;28;20336;-67
2022/06/10 09:26:40;;;;;;;4.40;2.03;;;;;;;24.64;43.03;100325.31;4210246;28;20223;-66
2022/06/10 09:28:42;;;;;;;3.92;1.98;;;;;;;25.00;43.50;100326.94;4213764;28;20234;-74
2022/06/10 09:30:57;;;;;;;5.00;2.03;;;;;;;25.08;42.05;100322.19;4213089;28;20206;-66
2022/06/10 09:33:09;;;;;;;6.95;2.60;;;;;;;25.58;40.54;100300.53;4214757;28;20230;-67
2022/06/10 09:35:28;;;;;;;5.15;2.50;;;;;;;25.90;41.24;100321.78;4207235;28;20263;-76
2022/06/10 09:37:39;;;;;;;3.60;1.80;;;;;;;25.51;40.77;100321.66;4213928;28;20239;-72
2022/06/10 09:42:32;;;;;;;3.80;1.70;;;;;;;25.26;40.34;100318.44;4220204;28;20641;-72
2022/06/10 09:44:51;;;;;;;4.05;1.67;;;;;;;25.76;39.38;100313.13;4216289;28;20246;-71
2022/06/10 09:47:14;;;;;;;3.92;1.90;;;;;;;26.05;38.44;100329.41;4200548;28;21283;-71
2022/06/10 09:50:00;;;;;;;3.72;2.13;;;;;;;25.75;39.30;100311.44;4199393;28;20244;-68
2022/06/10 09:52:07;;;;;;;4.50;2.08;;;;;;;25.88;38.33;100331.25;4157580;28;20302;-67
2022/06/10 09:54:24;;;;;;;3.60;1.98;;;;;;;25.82;39.40;100327.63;4181635;28;20281;-67
2022/06/10 09:56:57;;;;;;;4.57;1.83;;;;;;;26.30;39.49;100292.69;4205590;28;20280;-67
2022/06/10 09:59:04;;;;;;;3.30;1.85;;;;;;;26.73;38.86;100293.84;4205558;28;20285;-67
2022/06/10 10:01:38;;;;;;;5.97;2.00;;;;;;;25.78;41.11;100302.78;4210888;28;20709;-67
2022/06/10 10:03:58;;;;;;;2.90;1.50;;;;;;;25.88;39.85;100287.66;4173379;28;20247;-66